createdAt,value
2023-02-24T00:02:20.142Z,7.10
2023-02-24T00:04:51.849Z,7.10
2023-02-24T00:07:22.748Z,7.10
2023-02-24T00:09:51.601Z,7.10
2023-02-24T00:12:20.749Z,7.20
2023-02-24T00:14:49.574Z,7.10
2023-02-24T00:17:18.573Z,7.20
2023-02-24T00:19:47.597Z,7.20
2023-02-24T00:22:16.492Z,7.20
2023-02-24T00:24:46.982Z,7.20
2023-02-24T00:27:16.029Z,7.20
2023-02-24T00:29:47.815Z,7.20
2023-02-24T00:32:17.313Z,7.30
2023-02-24T00:34:47.809Z,7.20
2023-02-24T00:37:16.808Z,7.20
2023-02-24T00:39:48.738Z,7.30
2023-02-24T00:42:17.995Z,7.20
2023-02-24T00:44:48.616Z,7.30
2023-02-24T00:47:18.609Z,7.20
2023-02-24T00:49:48.322Z,7.30
2023-02-24T00:52:19.153Z,7.20
2023-02-24T00:54:51.024Z,7.20
2023-02-24T00:57:21.529Z,7.30
2023-02-24T00:59:52.905Z,7.30
2023-02-24T01:02:21.969Z,7.20
2023-02-24T01:04:51.128Z,7.20
2023-02-24T01:07:20.068Z,7.30
2023-02-24T01:09:51.978Z,7.30
2023-02-24T01:12:38.532Z,7.20
2023-02-24T01:15:10.187Z,7.20
2023-02-24T01:17:41.423Z,7.20
2023-02-24T01:20:18.164Z,7.20
2023-02-24T01:22:49.140Z,7.20
2023-02-24T01:25:21.738Z,7.20
2023-02-24T01:27:50.691Z,7.20
2023-02-24T01:30:20.716Z,7.20
2023-02-24T01:32:51.287Z,7.20
2023-02-24T01:35:20.713Z,7.10
2023-02-24T01:37:50.307Z,7.20
2023-02-24T01:40:21.630Z,7.10
2023-02-24T01:42:51.737Z,7.10
2023-02-24T01:45:28.770Z,7.10
2023-02-24T01:48:03.649Z,7.10
2023-02-24T01:50:36.102Z,7.00
2023-02-24T01:53:08.571Z,7.10
2023-02-24T01:55:47.083Z,7.00
2023-02-24T01:58:23.640Z,7.10
2023-02-24T02:00:52.934Z,7.00
2023-02-24T02:03:29.774Z,7.00
2023-02-24T02:06:02.966Z,7.00
2023-02-24T02:08:33.463Z,7.00
2023-02-24T02:11:07.134Z,7.00
2023-02-24T02:13:38.315Z,7.00
2023-02-24T02:16:25.713Z,7.00
2023-02-24T02:19:09.150Z,7.00
2023-02-24T02:22:17.090Z,7.00
2023-02-24T02:24:54.017Z,7.00
2023-02-24T02:27:58.221Z,7.00
2023-02-24T02:31:17.008Z,7.00
2023-02-24T02:34:07.008Z,7.00
2023-02-24T02:36:40.474Z,6.90
2023-02-24T02:39:17.143Z,6.90
2023-02-24T02:41:55.802Z,7.00
2023-02-24T02:44:32.453Z,7.00
2023-02-24T02:47:06.973Z,7.00
2023-02-24T02:49:42.178Z,7.00
2023-02-24T02:52:17.911Z,6.90
2023-02-24T02:54:50.860Z,6.90
2023-02-24T02:57:25.025Z,6.90
2023-02-24T02:59:58.220Z,6.90
2023-02-24T03:02:30.315Z,6.90
2023-02-24T03:05:04.978Z,6.90
2023-02-24T03:07:40.549Z,6.90
2023-02-24T03:10:17.715Z,6.90
2023-02-24T03:12:48.985Z,6.90
2023-02-24T03:15:21.394Z,6.90
2023-02-24T03:17:56.678Z,6.80
2023-02-24T03:20:32.853Z,6.70
2023-02-24T03:23:06.344Z,6.60
2023-02-24T03:25:44.555Z,6.50
2023-02-24T03:28:20.361Z,6.50
2023-02-24T03:30:58.082Z,6.50
2023-02-24T03:33:32.579Z,6.50
2023-02-24T03:36:03.546Z,6.40
2023-02-24T03:38:38.331Z,6.40
2023-02-24T03:41:11.545Z,6.50
2023-02-24T03:43:46.106Z,6.40
2023-02-24T03:46:17.132Z,6.40
2023-02-24T03:48:55.733Z,6.40
2023-02-24T03:51:26.689Z,6.40
2023-02-24T03:54:13.734Z,6.50
2023-02-24T03:56:50.753Z,6.50
2023-02-24T03:59:32.554Z,6.40
2023-02-24T04:02:07.727Z,6.50
2023-02-24T04:04:49.340Z,6.50
2023-02-24T04:07:41.268Z,6.40
2023-02-24T04:10:17.956Z,6.40
2023-02-24T04:12:54.420Z,6.40
2023-02-24T04:15:29.529Z,6.40
2023-02-24T04:18:03.270Z,6.40
2023-02-24T04:20:41.175Z,6.40
2023-02-24T04:23:17.917Z,6.50
2023-02-24T04:25:50.577Z,6.40
2023-02-24T04:28:21.278Z,6.30
2023-02-24T04:30:53.893Z,6.30
2023-02-24T04:33:23.018Z,6.40
2023-02-24T04:35:53.456Z,6.40
2023-02-24T04:38:24.937Z,6.30
2023-02-24T04:40:53.743Z,6.40
2023-02-24T04:43:23.017Z,6.40
2023-02-24T04:45:52.696Z,6.40
2023-02-24T04:48:21.615Z,6.30
2023-02-24T04:50:55.396Z,6.40
2023-02-24T04:53:27.602Z,6.30
2023-02-24T04:55:57.353Z,6.30
2023-02-24T04:58:28.117Z,6.30
2023-02-24T05:00:57.353Z,6.20
2023-02-24T05:03:28.748Z,6.30
2023-02-24T05:06:00.214Z,6.20
2023-02-24T05:08:32.078Z,6.30
2023-02-24T05:11:03.997Z,6.30
2023-02-24T05:13:34.092Z,6.20
2023-02-24T05:16:07.540Z,6.20
2023-02-24T05:18:37.436Z,6.20
2023-02-24T05:21:26.326Z,6.10
2023-02-24T05:23:58.351Z,6.10
2023-02-24T05:26:28.408Z,6.00
2023-02-24T05:28:59.783Z,6.10
2023-02-24T05:31:29.935Z,6.10
2023-02-24T05:34:00.430Z,6.10
2023-02-24T05:36:31.862Z,6.10
2023-02-24T05:39:06.389Z,6.10
2023-02-24T05:41:38.815Z,6.10
2023-02-24T05:44:09.616Z,6.00
2023-02-24T05:46:40.396Z,6.00
2023-02-24T05:49:14.519Z,6.10
2023-02-24T05:51:54.675Z,6.10
2023-02-24T05:54:29.509Z,6.10
2023-02-24T05:57:00.789Z,6.10
2023-02-24T05:59:32.898Z,6.10
2023-02-24T06:02:07.115Z,6.10
2023-02-24T06:04:46.580Z,6.10
2023-02-24T06:07:19.224Z,6.10
2023-02-24T06:09:50.751Z,6.10
2023-02-24T06:12:20.730Z,6.10
2023-02-24T06:14:49.656Z,6.10
2023-02-24T06:17:19.128Z,6.10
2023-02-24T06:19:50.778Z,6.10
2023-02-24T06:22:22.618Z,6.10
2023-02-24T06:24:54.144Z,6.10
2023-02-24T06:27:24.952Z,6.10
2023-02-24T06:29:56.800Z,6.10
2023-02-24T06:32:27.259Z,6.10
2023-02-24T06:34:57.532Z,6.10
2023-02-24T06:37:26.429Z,6.20
2023-02-24T06:39:58.324Z,6.10
2023-02-24T06:42:27.609Z,6.10
2023-02-24T06:44:56.439Z,6.20
2023-02-24T06:47:25.395Z,6.20
2023-02-24T06:49:54.166Z,6.20
2023-02-24T06:52:22.917Z,6.20
2023-02-24T06:54:52.462Z,6.20
2023-02-24T06:57:24.275Z,6.20
2023-02-24T06:59:53.045Z,6.20
2023-02-24T07:02:23.077Z,6.20
2023-02-24T07:04:55.277Z,6.20
2023-02-24T07:07:24.181Z,6.20
2023-02-24T07:09:53.050Z,6.20
2023-02-24T07:12:23.170Z,6.20
2023-02-24T07:14:51.987Z,6.20
2023-02-24T07:17:20.941Z,6.20
2023-02-24T07:19:49.697Z,6.20
2023-02-24T07:22:25.141Z,6.10
2023-02-24T07:25:00.509Z,6.00
2023-02-24T07:27:30.821Z,6.00
2023-02-24T07:29:59.632Z,6.00
2023-02-24T07:32:28.390Z,5.90
2023-02-24T07:34:57.190Z,5.50
2023-02-24T07:37:25.928Z,5.30
2023-02-24T07:39:54.695Z,5.10
2023-02-24T07:42:23.381Z,5.00
2023-02-24T07:44:57.694Z,4.90
2023-02-24T07:47:26.517Z,4.90
2023-02-24T07:49:55.545Z,4.90
2023-02-24T07:52:24.320Z,4.80
2023-02-24T07:54:55.157Z,4.90
2023-02-24T07:57:25.232Z,4.90
2023-02-24T07:59:54.165Z,4.90
2023-02-24T08:02:24.834Z,4.80
2023-02-24T08:04:54.252Z,4.80
2023-02-24T08:07:25.668Z,4.70
2023-02-24T08:10:24.196Z,4.80
2023-02-24T08:13:03.003Z,4.70
2023-02-24T08:15:34.093Z,4.70
2023-02-24T08:18:04.697Z,4.70
2023-02-24T08:20:52.024Z,4.60
2023-02-24T08:23:23.544Z,4.60
2023-02-24T08:25:53.718Z,4.60
2023-02-24T08:28:26.802Z,4.60
2023-02-24T08:30:55.728Z,4.50
2023-02-24T08:33:30.095Z,4.50
2023-02-24T08:36:02.175Z,4.50
2023-02-24T08:38:42.149Z,4.40
2023-02-24T08:41:17.838Z,4.40
2023-02-24T08:43:47.650Z,4.30
2023-02-24T08:46:19.439Z,4.40
2023-02-24T08:48:55.467Z,4.20
2023-02-24T08:51:28.782Z,4.10
2023-02-24T08:54:00.278Z,4.10
2023-02-24T08:56:34.421Z,4.20
2023-02-24T08:59:06.447Z,4.20
2023-02-24T09:01:37.284Z,4.20
2023-02-24T09:04:11.295Z,4.20
2023-02-24T09:06:43.921Z,4.10
2023-02-24T09:09:21.117Z,4.10
2023-02-24T09:11:56.181Z,4.10
2023-02-24T09:14:28.804Z,4.00
2023-02-24T09:17:06.943Z,4.00
2023-02-24T09:20:00.489Z,4.00
2023-02-24T09:22:40.842Z,3.90
2023-02-24T09:25:25.947Z,4.00
2023-02-24T09:28:08.125Z,4.00
2023-02-24T09:30:39.290Z,3.90
2023-02-24T09:33:18.657Z,3.90
2023-02-24T09:35:51.494Z,3.90
2023-02-24T09:38:42.782Z,3.90
2023-02-24T09:41:31.725Z,3.90
2023-02-24T09:44:07.504Z,3.80
2023-02-24T09:46:53.965Z,3.70
2023-02-24T09:49:40.054Z,3.60
2023-02-24T09:52:18.692Z,3.60
2023-02-24T09:55:09.831Z,3.60
2023-02-24T09:58:03.157Z,3.60
2023-02-24T10:00:34.798Z,3.60
2023-02-24T10:03:19.780Z,3.60
2023-02-24T10:05:59.020Z,3.80
2023-02-24T10:08:35.445Z,3.70
2023-02-24T10:11:08.438Z,3.90
2023-02-24T10:13:43.990Z,4.00
2023-02-24T10:16:23.902Z,4.20
2023-02-24T10:19:01.267Z,4.10
2023-02-24T10:21:49.822Z,4.00
2023-02-24T10:24:29.417Z,4.00
2023-02-24T10:27:08.482Z,4.00
2023-02-24T10:29:55.485Z,4.10
2023-02-24T10:32:34.081Z,4.20
2023-02-24T10:35:03.658Z,4.20
2023-02-24T10:37:32.623Z,4.30
2023-02-24T10:40:10.427Z,4.40
2023-02-24T10:42:46.063Z,4.40
2023-02-24T10:45:18.702Z,4.20
2023-02-24T10:47:57.022Z,4.10
2023-02-24T10:50:32.007Z,3.90
2023-02-24T10:53:26.211Z,3.90
2023-02-24T10:56:15.316Z,3.90
2023-02-24T10:58:56.869Z,3.80
2023-02-24T11:01:43.587Z,3.90
2023-02-24T11:04:33.508Z,4.00
2023-02-24T11:07:10.469Z,4.00
2023-02-24T11:09:52.194Z,4.00
2023-02-24T11:12:42.948Z,4.10
2023-02-24T11:15:38.905Z,4.30
2023-02-24T11:18:10.479Z,4.20
2023-02-24T11:20:49.274Z,4.10
2023-02-24T11:23:23.893Z,4.20
2023-02-24T11:25:54.902Z,4.30
2023-02-24T11:28:41.790Z,4.40
2023-02-24T11:31:22.693Z,4.50
2023-02-24T11:34:01.680Z,4.60
2023-02-24T11:36:39.591Z,4.70
2023-02-24T11:39:29.320Z,4.70
2023-02-24T11:42:01.936Z,4.70
2023-02-24T11:44:37.227Z,4.80
2023-02-24T11:47:11.812Z,4.80
2023-02-24T11:49:45.451Z,4.70
2023-02-24T11:52:19.180Z,4.80
2023-02-24T11:54:53.635Z,4.90
2023-02-24T11:57:30.317Z,4.80
2023-02-24T12:00:13.369Z,4.70
2023-02-24T12:02:48.889Z,4.80
2023-02-24T12:05:21.157Z,4.80
2023-02-24T12:07:52.797Z,4.80
2023-02-24T12:10:25.326Z,4.70
2023-02-24T12:13:02.094Z,4.70
2023-02-24T12:15:36.402Z,4.70
2023-02-24T12:18:14.654Z,4.70
2023-02-24T12:20:49.090Z,4.60
2023-02-24T12:23:24.217Z,4.60
2023-02-24T12:26:06.229Z,4.50
2023-02-24T12:28:48.800Z,4.50
2023-02-24T12:31:27.216Z,4.50
2023-02-24T12:34:08.662Z,4.60
2023-02-24T12:37:11.393Z,4.70
2023-02-24T12:39:53.302Z,4.70
2023-02-24T12:42:30.005Z,4.80
2023-02-24T12:45:11.412Z,5.00
2023-02-24T12:47:56.992Z,5.00
2023-02-24T12:50:37.234Z,5.00
2023-02-24T12:53:12.228Z,5.00
2023-02-24T12:55:51.431Z,5.00
2023-02-24T12:58:23.502Z,4.90
2023-02-24T13:01:02.980Z,4.90
2023-02-24T13:04:09.401Z,4.90
2023-02-24T13:06:54.312Z,4.90
2023-02-24T13:09:33.130Z,4.90
2023-02-24T13:12:07.249Z,4.90
2023-02-24T13:14:38.184Z,5.00
2023-02-24T13:17:17.663Z,5.00
2023-02-24T13:19:48.858Z,5.00
2023-02-24T13:22:30.716Z,5.00
2023-02-24T13:25:21.381Z,4.90
2023-02-24T13:27:59.550Z,5.00
2023-02-24T13:30:39.242Z,5.10
2023-02-24T13:33:23.131Z,5.00
2023-02-24T13:36:07.492Z,5.10
2023-02-24T13:38:38.844Z,5.10
2023-02-24T13:41:23.523Z,5.10
2023-02-24T13:43:57.955Z,5.10
2023-02-24T13:46:30.054Z,5.10
2023-02-24T13:49:08.871Z,5.00
2023-02-24T13:51:59.519Z,5.00
2023-02-24T13:55:02.513Z,5.10
2023-02-24T13:57:55.542Z,5.20
2023-02-24T14:00:32.601Z,5.20
2023-02-24T14:03:01.949Z,5.20
2023-02-24T14:05:34.410Z,5.10
2023-02-24T14:08:06.274Z,5.10
2023-02-24T14:10:36.987Z,5.20
2023-02-24T14:13:09.127Z,5.20
2023-02-24T14:15:42.390Z,5.30
2023-02-24T14:18:20.132Z,5.30
2023-02-24T14:20:49.300Z,5.30
2023-02-24T14:23:27.379Z,5.20
2023-02-24T14:25:59.592Z,5.10
2023-02-24T14:28:31.468Z,5.10
2023-02-24T14:31:03.481Z,5.20
2023-02-24T14:33:35.454Z,5.10
2023-02-24T14:36:06.300Z,5.10
2023-02-24T14:38:39.693Z,5.10
2023-02-24T14:41:25.333Z,5.20
2023-02-24T14:43:56.352Z,5.10
2023-02-24T14:46:25.729Z,5.10
2023-02-24T14:48:57.135Z,5.00
2023-02-24T14:51:29.586Z,5.00
2023-02-24T14:54:04.594Z,5.00
2023-02-24T14:56:35.388Z,5.00
2023-02-24T14:59:07.550Z,5.00
2023-02-24T15:01:40.110Z,5.00
2023-02-24T15:04:14.273Z,5.00
2023-02-24T15:06:44.724Z,5.00
2023-02-24T15:09:20.957Z,4.90
2023-02-24T15:11:53.178Z,4.90
2023-02-24T15:14:25.270Z,5.00
2023-02-24T15:16:57.790Z,4.90
2023-02-24T15:19:28.725Z,4.90
2023-02-24T15:21:57.644Z,4.90
2023-02-24T15:24:29.723Z,5.00
2023-02-24T15:27:00.819Z,5.10
2023-02-24T15:29:31.670Z,5.20
2023-02-24T15:32:01.898Z,5.20
2023-02-24T15:34:33.180Z,5.20
2023-02-24T15:37:04.484Z,5.20
2023-02-24T15:39:36.986Z,5.20
2023-02-24T15:42:10.748Z,5.20
2023-02-24T15:44:39.704Z,5.20
2023-02-24T15:47:23.081Z,5.20
2023-02-24T15:49:51.862Z,5.20
2023-02-24T15:52:24.866Z,5.20
2023-02-24T15:54:55.529Z,5.20
2023-02-24T15:57:25.057Z,5.20
2023-02-24T15:59:53.940Z,5.20
2023-02-24T16:02:24.314Z,5.20
2023-02-24T16:04:53.601Z,5.20
2023-02-24T16:07:24.796Z,5.20
2023-02-24T16:09:56.017Z,5.20
2023-02-24T16:12:28.778Z,5.20
2023-02-24T16:15:03.099Z,5.10
2023-02-24T16:17:34.254Z,5.10
2023-02-24T16:20:08.510Z,5.10
2023-02-24T16:22:37.305Z,5.00
2023-02-24T16:25:08.805Z,5.00
2023-02-24T16:27:37.788Z,5.00
2023-02-24T16:30:08.942Z,4.90
2023-02-24T16:32:37.816Z,4.80
2023-02-24T16:35:11.008Z,4.90
2023-02-24T16:37:40.288Z,4.90
2023-02-24T16:40:23.173Z,4.80
2023-02-24T16:42:53.096Z,4.70
2023-02-24T16:45:23.368Z,4.70
2023-02-24T16:47:52.194Z,4.60
2023-02-24T16:50:24.911Z,4.60
2023-02-24T16:52:53.717Z,4.50
2023-02-24T16:55:24.185Z,4.50
2023-02-24T16:57:52.936Z,4.50
2023-02-24T17:00:24.311Z,4.50
2023-02-24T17:02:54.263Z,4.50
2023-02-24T17:05:25.295Z,4.60
2023-02-24T17:07:57.201Z,4.60
2023-02-24T17:10:27.573Z,4.50
2023-02-24T17:12:56.329Z,4.50
2023-02-24T17:15:27.670Z,4.50
2023-02-24T17:17:56.509Z,4.50
2023-02-24T17:20:25.396Z,4.50
2023-02-24T17:22:54.235Z,4.50
2023-02-24T17:25:25.466Z,4.50
2023-02-24T17:27:58.257Z,4.40
2023-02-24T17:30:29.318Z,4.40
2023-02-24T17:32:58.212Z,4.40
2023-02-24T17:35:27.564Z,4.40
2023-02-24T17:37:56.757Z,4.30
2023-02-24T17:40:25.943Z,4.20
2023-02-24T17:42:56.066Z,4.20
2023-02-24T17:45:24.908Z,4.30
2023-02-24T17:47:53.825Z,4.30
2023-02-24T17:50:22.654Z,4.30
2023-02-24T17:52:51.590Z,4.30
2023-02-24T17:55:20.435Z,4.30
2023-02-24T17:57:49.231Z,4.20
2023-02-24T18:00:20.878Z,4.20
2023-02-24T18:02:49.663Z,4.20
2023-02-24T18:05:18.617Z,4.20
2023-02-24T18:07:47.364Z,4.20
2023-02-24T18:10:16.239Z,4.20
2023-02-24T18:12:45.178Z,4.20
2023-02-24T18:15:14.081Z,4.20
2023-02-24T18:17:44.238Z,4.20
2023-02-24T18:20:14.154Z,4.30
2023-02-24T18:22:42.918Z,4.30
2023-02-24T18:25:11.846Z,4.20
2023-02-24T18:27:40.869Z,4.20
2023-02-24T18:30:11.676Z,4.20
2023-02-24T18:32:44.566Z,4.20
2023-02-24T18:35:16.000Z,4.20
2023-02-24T18:37:44.961Z,4.30
2023-02-24T18:40:14.418Z,4.20
2023-02-24T18:42:43.867Z,4.10
2023-02-24T18:45:14.153Z,4.10
2023-02-24T18:47:42.961Z,4.10
2023-02-24T18:50:12.989Z,4.00
2023-02-24T18:52:43.438Z,4.00
2023-02-24T18:55:12.305Z,3.90
2023-02-24T18:57:41.280Z,3.90
2023-02-24T19:00:13.808Z,3.90
2023-02-24T19:02:43.040Z,4.00
2023-02-24T19:05:12.400Z,4.00
2023-02-24T19:07:42.951Z,4.00
2023-02-24T19:10:13.100Z,4.00
2023-02-24T19:12:41.880Z,4.00
2023-02-24T19:15:11.298Z,4.00
2023-02-24T19:17:40.061Z,3.90
2023-02-24T19:20:10.582Z,4.00
2023-02-24T19:22:39.309Z,4.00
2023-02-24T19:25:10.098Z,3.90
2023-02-24T19:27:39.030Z,3.90
2023-02-24T19:30:09.302Z,3.90
2023-02-24T19:32:38.313Z,3.90
2023-02-24T19:35:07.894Z,3.90
2023-02-24T19:37:36.632Z,3.90
2023-02-24T19:40:05.780Z,3.90
2023-02-24T19:42:35.879Z,3.90
2023-02-24T19:45:04.970Z,3.90
2023-02-24T19:47:34.528Z,3.90
2023-02-24T19:50:03.294Z,3.90
2023-02-24T19:52:32.048Z,3.90
2023-02-24T19:55:00.799Z,3.90
2023-02-24T19:57:29.629Z,3.90
2023-02-24T19:59:59.774Z,3.90
2023-02-24T20:02:29.449Z,3.90
2023-02-24T20:04:59.436Z,3.90
2023-02-24T20:07:28.416Z,3.80
2023-02-24T20:09:57.315Z,3.80
2023-02-24T20:12:26.112Z,3.70
2023-02-24T20:14:54.920Z,3.70
2023-02-24T20:17:25.038Z,3.70
2023-02-24T20:19:53.883Z,3.70
2023-02-24T20:22:22.694Z,3.70
2023-02-24T20:24:51.547Z,3.70
2023-02-24T20:27:20.249Z,3.60
2023-02-24T20:29:49.072Z,3.60
2023-02-24T20:32:17.845Z,3.60
2023-02-24T20:34:48.264Z,3.60
2023-02-24T20:37:17.113Z,3.50
2023-02-24T20:39:46.102Z,3.50
2023-02-24T20:42:15.132Z,3.50
2023-02-24T20:44:43.914Z,3.40
2023-02-24T20:47:12.786Z,3.40
2023-02-24T20:49:41.742Z,3.40
2023-02-24T20:52:12.000Z,3.50
2023-02-24T20:54:40.863Z,3.40
2023-02-24T20:57:09.622Z,3.40
2023-02-24T20:59:41.600Z,3.40
2023-02-24T21:02:12.867Z,3.30
2023-02-24T21:04:41.679Z,3.30
2023-02-24T21:07:11.870Z,3.30
2023-02-24T21:09:40.618Z,3.20
2023-02-24T21:12:09.678Z,3.20
2023-02-24T21:14:38.409Z,3.20
2023-02-24T21:17:08.227Z,3.20
2023-02-24T21:19:36.930Z,3.20
2023-02-24T21:22:06.440Z,3.20
2023-02-24T21:24:36.637Z,3.20
2023-02-24T21:27:05.540Z,3.20
2023-02-24T21:29:34.724Z,3.20
2023-02-24T21:32:03.771Z,3.20
2023-02-24T21:34:32.640Z,3.20
2023-02-24T21:37:01.631Z,3.30
2023-02-24T21:39:30.522Z,3.30
2023-02-24T21:42:00.665Z,3.30
2023-02-24T21:44:29.682Z,3.30
2023-02-24T21:46:58.432Z,3.40
2023-02-24T21:49:27.269Z,3.30
2023-02-24T21:51:56.029Z,3.20
2023-02-24T21:54:26.558Z,3.20
2023-02-24T21:56:55.329Z,3.10
2023-02-24T21:59:25.582Z,3.10
2023-02-24T22:01:55.115Z,3.10
2023-02-24T22:04:23.852Z,3.10
2023-02-24T22:06:52.614Z,3.10
2023-02-24T22:09:21.419Z,3.00
2023-02-24T22:11:51.195Z,3.00
2023-02-24T22:14:20.478Z,3.00
2023-02-24T22:16:50.629Z,3.00
2023-02-24T22:19:20.174Z,3.00
2023-02-24T22:21:48.914Z,3.00
2023-02-24T22:24:19.184Z,2.90
2023-02-24T22:26:47.957Z,2.90
2023-02-24T22:29:16.654Z,2.90
2023-02-24T22:31:49.591Z,2.90
2023-02-24T22:34:20.187Z,2.90
2023-02-24T22:36:48.943Z,2.90
2023-02-24T22:39:17.870Z,2.90
2023-02-24T22:41:47.526Z,2.80
2023-02-24T22:44:19.153Z,2.90
2023-02-24T22:46:49.295Z,2.90
2023-02-24T22:49:19.522Z,2.90
2023-02-24T22:51:48.320Z,2.90
2023-02-24T22:54:17.340Z,2.90
2023-02-24T22:56:46.572Z,2.90
2023-02-24T22:59:15.914Z,2.80
2023-02-24T23:01:44.820Z,2.80
2023-02-24T23:04:17.136Z,2.90
2023-02-24T23:06:48.316Z,2.90
2023-02-24T23:09:20.095Z,3.00
2023-02-24T23:11:49.476Z,2.90
2023-02-24T23:14:18.914Z,2.90
2023-02-24T23:16:53.581Z,2.90
2023-02-24T23:19:23.711Z,2.90
2023-02-24T23:21:56.237Z,2.90
2023-02-24T23:24:25.816Z,2.90
2023-02-24T23:26:57.657Z,2.90
2023-02-24T23:29:27.717Z,2.80
2023-02-24T23:31:56.598Z,2.90
2023-02-24T23:34:25.708Z,2.90
2023-02-24T23:36:55.833Z,2.90
2023-02-24T23:39:24.613Z,2.90
2023-02-24T23:41:57.471Z,2.90
2023-02-24T23:44:26.811Z,2.90
2023-02-24T23:46:58.167Z,2.90
2023-02-24T23:49:39.053Z,2.90
2023-02-24T23:52:11.470Z,2.90
2023-02-24T23:54:40.226Z,3.00
2023-02-24T23:57:08.945Z,3.00
2023-02-24T23:59:39.417Z,3.00
